createdAt,value
2023-05-18T00:00:05.407Z,61.08
2023-05-18T00:02:33.048Z,60.84
2023-05-18T00:05:02.587Z,60.62
2023-05-18T00:07:34.326Z,61.05
2023-05-18T00:10:02.239Z,61.01
2023-05-18T00:12:29.987Z,60.76
2023-05-18T00:14:57.607Z,60.73
2023-05-18T00:17:25.612Z,61.28
2023-05-18T00:19:53.326Z,61.11
2023-05-18T00:22:20.914Z,61.55
2023-05-18T00:24:48.512Z,61.32
2023-05-18T00:27:16.256Z,61.24
2023-05-18T00:29:44.494Z,61.49
2023-05-18T00:32:12.114Z,61.48
2023-05-18T00:34:39.789Z,61.08
2023-05-18T00:37:07.410Z,61.19
2023-05-18T00:39:35.004Z,61.64
2023-05-18T00:42:03.092Z,61.79
2023-05-18T00:44:30.847Z,61.38
2023-05-18T00:47:00.270Z,61.20
2023-05-18T00:49:27.925Z,61.83
2023-05-18T00:51:55.528Z,61.57
2023-05-18T00:54:23.516Z,61.45
2023-05-18T00:56:51.242Z,61.71
2023-05-18T00:59:18.857Z,62.14
2023-05-18T01:01:47.081Z,61.93
2023-05-18T01:04:15.454Z,61.74
2023-05-18T01:06:44.094Z,62.30
2023-05-18T01:09:12.331Z,62.33
2023-05-18T01:11:40.632Z,62.32
2023-05-18T01:14:08.287Z,62.69
2023-05-18T01:16:37.541Z,62.71
2023-05-18T01:19:06.092Z,62.83
2023-05-18T01:21:34.497Z,62.62
2023-05-18T01:24:03.652Z,62.75
2023-05-18T01:26:31.870Z,62.21
2023-05-18T01:28:59.462Z,62.39
2023-05-18T01:31:29.050Z,63.07
2023-05-18T01:33:56.802Z,62.60
2023-05-18T01:36:24.393Z,62.73
2023-05-18T01:38:51.998Z,62.65
2023-05-18T01:41:19.658Z,62.76
2023-05-18T01:43:47.598Z,62.84
2023-05-18T01:46:15.229Z,62.40
2023-05-18T01:48:42.894Z,63.09
2023-05-18T01:51:10.491Z,63.02
2023-05-18T01:53:38.548Z,62.95
2023-05-18T01:56:06.540Z,62.90
2023-05-18T01:58:34.124Z,62.60
2023-05-18T02:01:01.758Z,63.12
2023-05-18T02:03:29.539Z,62.71
2023-05-18T02:05:57.273Z,63.19
2023-05-18T02:08:25.230Z,62.72
2023-05-18T02:10:52.883Z,63.03
2023-05-18T02:13:20.496Z,63.37
2023-05-18T02:15:48.643Z,62.92
2023-05-18T02:18:16.740Z,63.18
2023-05-18T02:20:44.655Z,63.22
2023-05-18T02:23:12.337Z,63.75
2023-05-18T02:25:40.076Z,63.22
2023-05-18T02:28:07.721Z,63.47
2023-05-18T02:30:35.407Z,63.56
2023-05-18T02:33:04.931Z,63.96
2023-05-18T02:35:32.807Z,64.07
2023-05-18T02:38:00.644Z,64.31
2023-05-18T02:40:28.285Z,63.83
2023-05-18T02:42:55.930Z,64.25
2023-05-18T02:45:23.769Z,64.49
2023-05-18T02:47:51.536Z,64.43
2023-05-18T02:50:19.192Z,64.30
2023-05-18T02:52:49.333Z,64.56
2023-05-18T02:55:17.464Z,64.67
2023-05-18T02:57:47.375Z,64.67
2023-05-18T03:00:16.901Z,64.58
2023-05-18T03:02:48.635Z,64.83
2023-05-18T03:05:16.753Z,64.81
2023-05-18T03:07:51.167Z,64.53
2023-05-18T03:10:18.788Z,64.40
2023-05-18T03:12:46.414Z,64.89
2023-05-18T03:15:16.364Z,64.49
2023-05-18T03:17:44.048Z,64.79
2023-05-18T03:20:12.276Z,64.58
2023-05-18T03:22:39.904Z,64.48
2023-05-18T03:25:07.493Z,64.85
2023-05-18T03:27:35.094Z,64.34
2023-05-18T03:30:02.738Z,64.43
2023-05-18T03:32:32.113Z,64.21
2023-05-18T03:35:01.196Z,64.83
2023-05-18T03:37:28.884Z,65.32
2023-05-18T03:39:56.803Z,64.78
2023-05-18T03:42:25.856Z,64.85
2023-05-18T03:44:53.884Z,64.83
2023-05-18T03:47:22.304Z,65.12
2023-05-18T03:49:49.974Z,64.45
2023-05-18T03:52:22.283Z,65.29
2023-05-18T03:54:50.270Z,64.59
2023-05-18T03:57:17.869Z,64.43
2023-05-18T03:59:45.736Z,64.91
2023-05-18T04:02:13.426Z,64.86
2023-05-18T04:04:42.137Z,64.39
2023-05-18T04:07:09.755Z,64.69
2023-05-18T04:09:37.678Z,64.45
2023-05-18T04:12:05.464Z,64.55
2023-05-18T04:14:34.254Z,64.65
2023-05-18T04:17:05.100Z,64.71
2023-05-18T04:19:33.095Z,64.47
2023-05-18T04:22:01.284Z,64.12
2023-05-18T04:24:32.677Z,64.25
2023-05-18T04:27:01.006Z,63.67
2023-05-18T04:29:29.326Z,63.25
2023-05-18T04:32:00.129Z,63.98
2023-05-18T04:34:27.861Z,63.76
2023-05-18T04:36:56.146Z,63.60
2023-05-18T04:39:23.730Z,63.61
2023-05-18T04:41:58.277Z,63.53
2023-05-18T04:44:26.033Z,63.29
2023-05-18T04:46:54.369Z,62.48
2023-05-18T04:49:23.349Z,63.13
2023-05-18T04:51:55.763Z,62.56
2023-05-18T04:54:23.438Z,62.55
2023-05-18T04:56:51.194Z,62.58
2023-05-18T04:59:19.199Z,62.18
2023-05-18T05:01:47.188Z,62.03
2023-05-18T05:04:15.079Z,61.61
2023-05-18T05:06:42.750Z,61.72
2023-05-18T05:09:10.380Z,61.22
2023-05-18T05:11:38.086Z,60.65
2023-05-18T05:14:05.883Z,60.82
2023-05-18T05:16:33.510Z,61.08
2023-05-18T05:19:01.333Z,60.92
2023-05-18T05:21:29.028Z,60.72
2023-05-18T05:23:57.057Z,60.57
2023-05-18T05:26:24.846Z,60.46
2023-05-18T05:28:52.802Z,60.68
2023-05-18T05:31:20.465Z,60.48
2023-05-18T05:33:48.159Z,60.42
2023-05-18T05:36:16.179Z,60.61
2023-05-18T05:38:43.823Z,60.27
2023-05-18T05:41:11.535Z,59.80
2023-05-18T05:43:39.193Z,59.92
2023-05-18T05:46:06.791Z,59.85
2023-05-18T05:48:34.495Z,59.69
2023-05-18T05:51:03.715Z,59.44
2023-05-18T05:53:31.323Z,59.51
2023-05-18T05:55:58.972Z,59.54
2023-05-18T05:58:26.610Z,59.38
2023-05-18T06:00:54.258Z,59.05
2023-05-18T06:03:22.057Z,59.39
2023-05-18T06:05:49.814Z,59.11
2023-05-18T06:08:17.464Z,58.96
2023-05-18T06:10:45.204Z,59.09
2023-05-18T06:13:13.697Z,58.83
2023-05-18T06:15:41.320Z,58.56
2023-05-18T06:18:09.927Z,58.50
2023-05-18T06:20:38.460Z,58.79
2023-05-18T06:23:06.103Z,58.35
2023-05-18T06:25:35.752Z,58.34
2023-05-18T06:28:03.670Z,58.09
2023-05-18T06:30:31.353Z,57.67
2023-05-18T06:32:59.089Z,57.87
2023-05-18T06:35:26.758Z,58.22
2023-05-18T06:37:54.462Z,57.80
2023-05-18T06:40:22.190Z,57.98
2023-05-18T06:42:49.820Z,57.84
2023-05-18T06:45:17.490Z,57.82
2023-05-18T06:47:45.262Z,57.28
2023-05-18T06:50:13.277Z,57.63
2023-05-18T06:52:40.956Z,57.02
2023-05-18T06:55:09.341Z,56.90
2023-05-18T06:57:36.986Z,57.25
2023-05-18T07:00:07.460Z,57.09
2023-05-18T07:02:35.524Z,56.47
2023-05-18T07:05:05.753Z,56.32
2023-05-18T07:07:33.490Z,56.68
2023-05-18T07:10:01.307Z,56.88
2023-05-18T07:12:29.236Z,55.67
2023-05-18T07:14:57.278Z,56.00
2023-05-18T07:17:26.821Z,56.13
2023-05-18T07:19:54.647Z,55.99
2023-05-18T07:22:22.332Z,56.01
2023-05-18T07:24:50.155Z,55.73
2023-05-18T07:27:18.203Z,55.12
2023-05-18T07:29:46.140Z,55.13
2023-05-18T07:32:13.857Z,55.29
2023-05-18T07:34:42.661Z,55.30
2023-05-18T07:37:10.363Z,55.43
2023-05-18T07:39:40.405Z,55.16
2023-05-18T07:42:08.187Z,54.86
2023-05-18T07:44:36.068Z,54.68
2023-05-18T07:47:03.992Z,54.84
2023-05-18T07:49:31.889Z,54.78
2023-05-18T07:52:01.001Z,54.50
2023-05-18T07:54:29.101Z,54.82
2023-05-18T07:56:59.102Z,54.71
2023-05-18T07:59:28.121Z,55.03
2023-05-18T08:01:58.020Z,54.58
2023-05-18T08:04:26.188Z,54.34
2023-05-18T08:06:54.997Z,54.55
2023-05-18T08:09:23.308Z,54.52
2023-05-18T08:11:51.787Z,54.34
2023-05-18T08:14:19.481Z,53.97
2023-05-18T08:16:47.721Z,53.57
2023-05-18T08:19:15.744Z,53.72
2023-05-18T08:21:43.591Z,53.77
2023-05-18T08:24:11.769Z,53.66
2023-05-18T08:26:39.770Z,53.38
2023-05-18T08:29:10.297Z,53.15
2023-05-18T08:31:38.282Z,53.45
2023-05-18T08:34:06.290Z,52.74
2023-05-18T08:36:34.639Z,52.63
2023-05-18T08:39:03.078Z,52.33
2023-05-18T08:41:31.454Z,52.66
2023-05-18T08:43:59.222Z,52.19
2023-05-18T08:46:27.506Z,51.98
2023-05-18T08:48:55.275Z,52.20
2023-05-18T08:51:23.049Z,51.84
2023-05-18T08:53:51.207Z,51.87
2023-05-18T08:56:19.166Z,51.87
2023-05-18T08:58:46.940Z,51.25
2023-05-18T09:01:14.685Z,51.13
2023-05-18T09:03:42.555Z,51.31
2023-05-18T09:06:10.977Z,50.99
2023-05-18T09:08:39.234Z,50.43
2023-05-18T09:11:07.032Z,50.42
2023-05-18T09:13:34.809Z,50.57
2023-05-18T09:16:02.720Z,50.14
2023-05-18T09:18:30.860Z,50.25
2023-05-18T09:20:58.881Z,49.90
2023-05-18T09:23:26.830Z,49.59
2023-05-18T09:25:54.573Z,49.85
2023-05-18T09:28:22.453Z,49.49
2023-05-18T09:30:50.659Z,49.16
2023-05-18T09:33:19.469Z,49.50
2023-05-18T09:35:47.686Z,48.75
2023-05-18T09:38:15.669Z,48.60
2023-05-18T09:40:43.393Z,48.49
2023-05-18T09:43:11.526Z,47.90
2023-05-18T09:45:39.343Z,47.78
2023-05-18T09:48:07.110Z,46.55
2023-05-18T09:50:35.020Z,46.77
2023-05-18T09:53:03.262Z,46.20
2023-05-18T09:55:31.380Z,45.73
2023-05-18T09:57:59.400Z,45.01
2023-05-18T10:00:27.408Z,44.96
2023-05-18T10:02:56.711Z,44.81
2023-05-18T10:05:24.715Z,44.40
2023-05-18T10:07:52.973Z,44.97
2023-05-18T10:10:20.985Z,45.01
2023-05-18T10:12:48.817Z,44.23
2023-05-18T10:15:17.354Z,43.81
2023-05-18T10:17:45.327Z,43.36
2023-05-18T10:20:13.859Z,43.04
2023-05-18T10:22:41.913Z,42.40
2023-05-18T10:25:09.744Z,42.24
2023-05-18T10:27:37.677Z,42.42
2023-05-18T10:30:05.636Z,41.84
2023-05-18T10:32:33.925Z,41.58
2023-05-18T10:35:01.835Z,41.20
2023-05-18T10:37:31.084Z,41.42
2023-05-18T10:39:58.820Z,41.01
2023-05-18T10:42:26.669Z,40.18
2023-05-18T10:44:54.944Z,40.11
2023-05-18T10:47:23.061Z,40.07
2023-05-18T10:49:50.869Z,39.79
2023-05-18T10:52:18.792Z,40.44
2023-05-18T10:54:46.604Z,41.53
2023-05-18T10:57:15.107Z,41.50
2023-05-18T10:59:46.703Z,40.47
2023-05-18T11:02:16.224Z,39.98
2023-05-18T11:04:44.168Z,39.34
2023-05-18T11:07:12.299Z,38.54
2023-05-18T11:09:40.562Z,38.79
2023-05-18T11:12:09.042Z,38.47
2023-05-18T11:14:37.071Z,38.15
2023-05-18T11:17:04.985Z,37.69
2023-05-18T11:19:32.860Z,36.95
2023-05-18T11:22:01.737Z,36.55
2023-05-18T11:24:29.898Z,36.56
2023-05-18T11:26:57.754Z,36.45
2023-05-18T11:29:26.013Z,36.04
2023-05-18T11:31:54.084Z,36.18
2023-05-18T11:34:22.876Z,35.72
2023-05-18T11:36:51.114Z,37.11
2023-05-18T11:39:18.894Z,35.96
2023-05-18T11:41:47.833Z,36.37
2023-05-18T11:44:16.461Z,35.96
2023-05-18T11:46:44.786Z,35.61
2023-05-18T11:49:13.233Z,35.63
2023-05-18T11:51:41.071Z,36.08
2023-05-18T11:54:09.221Z,35.81
2023-05-18T11:56:37.053Z,36.84
2023-05-18T11:59:05.396Z,37.28
2023-05-18T12:01:33.445Z,37.04
2023-05-18T12:04:01.247Z,36.25
2023-05-18T12:06:29.239Z,35.47
2023-05-18T12:08:57.047Z,35.06
2023-05-18T12:11:24.946Z,35.52
2023-05-18T12:13:53.063Z,34.96
2023-05-18T12:16:20.887Z,34.81
2023-05-18T12:18:48.892Z,34.80
2023-05-18T12:21:17.281Z,34.98
2023-05-18T12:23:45.915Z,34.67
2023-05-18T12:26:14.659Z,34.95
2023-05-18T12:28:43.292Z,35.73
2023-05-18T12:31:11.249Z,37.07
2023-05-18T12:33:39.182Z,36.40
2023-05-18T12:36:07.465Z,36.28
2023-05-18T12:38:36.289Z,35.49
2023-05-18T12:41:04.037Z,35.95
2023-05-18T12:43:31.953Z,36.35
2023-05-18T12:45:59.860Z,36.42
2023-05-18T12:48:27.913Z,35.60
2023-05-18T12:50:56.841Z,35.59
2023-05-18T12:53:25.056Z,35.01
2023-05-18T12:55:52.947Z,34.32
2023-05-18T12:58:21.290Z,33.81
2023-05-18T13:00:49.517Z,34.48
2023-05-18T13:03:17.937Z,33.84
2023-05-18T13:05:46.322Z,34.03
2023-05-18T13:08:14.221Z,33.88
2023-05-18T13:10:41.976Z,33.75
2023-05-18T13:13:10.688Z,33.65
2023-05-18T13:15:38.857Z,33.63
2023-05-18T13:18:06.814Z,32.70
2023-05-18T13:20:36.532Z,33.63
2023-05-18T13:23:04.865Z,32.85
2023-05-18T13:25:33.602Z,33.47
2023-05-18T13:28:01.755Z,33.48
2023-05-18T13:30:29.804Z,33.89
2023-05-18T13:32:57.813Z,34.47
2023-05-18T13:35:25.835Z,34.61
2023-05-18T13:37:53.654Z,35.24
2023-05-18T13:40:21.656Z,35.59
2023-05-18T13:42:49.592Z,35.91
2023-05-18T13:45:17.599Z,36.54
2023-05-18T13:47:50.877Z,36.29
2023-05-18T13:50:19.483Z,36.59
2023-05-18T13:52:48.085Z,36.38
2023-05-18T13:55:16.710Z,36.84
2023-05-18T13:57:44.557Z,37.10
2023-05-18T14:00:13.671Z,36.96
2023-05-18T14:02:41.760Z,35.85
2023-05-18T14:05:10.559Z,35.68
2023-05-18T14:07:38.457Z,34.54
2023-05-18T14:10:06.538Z,34.80
2023-05-18T14:12:34.453Z,34.04
2023-05-18T14:15:02.926Z,33.81
2023-05-18T14:17:32.850Z,33.21
2023-05-18T14:20:00.850Z,33.67
2023-05-18T14:22:30.709Z,33.68
2023-05-18T14:24:58.679Z,33.97
2023-05-18T14:27:26.844Z,33.79
2023-05-18T14:29:54.680Z,33.53
2023-05-18T14:32:22.789Z,33.57
2023-05-18T14:34:52.193Z,33.43
2023-05-18T14:37:20.058Z,33.38
2023-05-18T14:39:49.085Z,33.81
2023-05-18T14:42:16.870Z,34.02
2023-05-18T14:44:44.779Z,34.18
2023-05-18T14:47:12.814Z,33.98
2023-05-18T14:49:40.711Z,33.49
2023-05-18T14:52:08.999Z,33.39
2023-05-18T14:54:37.054Z,32.48
2023-05-18T14:57:04.964Z,32.55
2023-05-18T14:59:32.997Z,32.46
2023-05-18T15:02:01.196Z,32.23
2023-05-18T15:04:29.099Z,32.41
2023-05-18T15:06:56.937Z,31.54
2023-05-18T15:09:26.719Z,31.38
2023-05-18T15:11:54.744Z,30.49
2023-05-18T15:14:22.520Z,30.72
2023-05-18T15:16:50.737Z,30.44
2023-05-18T15:19:19.422Z,30.67
2023-05-18T15:21:47.455Z,30.51
2023-05-18T15:24:15.731Z,30.31
2023-05-18T15:26:43.606Z,30.18
2023-05-18T15:29:11.848Z,30.70
2023-05-18T15:31:40.286Z,30.15
2023-05-18T15:34:08.161Z,30.67
2023-05-18T15:36:36.631Z,30.28
2023-05-18T15:39:05.248Z,30.31
2023-05-18T15:41:34.986Z,30.88
2023-05-18T15:44:02.972Z,30.83
2023-05-18T15:46:33.351Z,30.79
2023-05-18T15:49:01.188Z,30.91
2023-05-18T15:51:29.189Z,30.67
2023-05-18T15:53:57.593Z,31.17
2023-05-18T15:56:25.975Z,31.09
2023-05-18T15:58:53.843Z,30.91
2023-05-18T16:01:21.868Z,30.93
2023-05-18T16:03:49.807Z,30.51
2023-05-18T16:06:17.935Z,31.06
2023-05-18T16:08:48.206Z,30.95
2023-05-18T16:11:16.036Z,31.21
2023-05-18T16:13:43.783Z,31.13
2023-05-18T16:16:14.377Z,30.56
2023-05-18T16:18:42.555Z,30.63
2023-05-18T16:21:10.826Z,31.09
2023-05-18T16:23:38.682Z,31.87
2023-05-18T16:26:06.542Z,31.26
2023-05-18T16:28:34.268Z,32.45
2023-05-18T16:31:04.391Z,34.13
2023-05-18T16:33:32.327Z,35.85
2023-05-18T16:36:00.194Z,37.21
2023-05-18T16:38:28.111Z,38.45
2023-05-18T16:40:55.871Z,39.46
2023-05-18T16:43:24.582Z,39.62
2023-05-18T16:45:52.480Z,40.02
2023-05-18T16:48:20.247Z,40.85
2023-05-18T16:50:48.106Z,40.91
2023-05-18T16:53:16.435Z,41.09
2023-05-18T16:55:44.665Z,41.85
2023-05-18T16:58:12.967Z,41.98
2023-05-18T17:00:40.804Z,41.77
2023-05-18T17:03:08.684Z,41.93
2023-05-18T17:05:36.651Z,42.48
2023-05-18T17:08:04.835Z,42.71
2023-05-18T17:10:35.670Z,43.20
2023-05-18T17:13:03.545Z,43.06
2023-05-18T17:15:32.062Z,42.95
2023-05-18T17:17:59.994Z,43.00
2023-05-18T17:20:28.764Z,43.13
2023-05-18T17:22:57.724Z,43.18
2023-05-18T17:25:26.756Z,43.52
2023-05-18T17:27:54.522Z,43.26
2023-05-18T17:30:22.507Z,43.65
2023-05-18T17:32:51.548Z,43.88
2023-05-18T17:35:19.504Z,43.60
2023-05-18T17:37:49.063Z,43.77
2023-05-18T17:40:16.904Z,44.13
2023-05-18T17:42:44.707Z,43.65
2023-05-18T17:45:12.975Z,43.82
2023-05-18T17:47:41.953Z,44.00
2023-05-18T17:50:09.991Z,44.52
2023-05-18T17:52:37.904Z,43.84
2023-05-18T17:55:05.597Z,44.29
2023-05-18T17:57:34.326Z,44.05
2023-05-18T18:00:05.614Z,44.24
2023-05-18T18:02:33.524Z,44.78
2023-05-18T18:05:01.289Z,44.43
2023-05-18T18:07:29.326Z,44.96
2023-05-18T18:09:57.852Z,44.98
2023-05-18T18:12:25.838Z,44.65
2023-05-18T18:14:53.750Z,44.88
2023-05-18T18:17:21.584Z,45.30
2023-05-18T18:19:49.511Z,45.40
2023-05-18T18:22:17.943Z,45.28
2023-05-18T18:24:45.800Z,45.45
2023-05-18T18:27:13.841Z,45.77
2023-05-18T18:29:41.796Z,45.74
2023-05-18T18:32:10.123Z,45.99
2023-05-18T18:34:38.303Z,45.72
2023-05-18T18:37:06.480Z,46.11
2023-05-18T18:39:35.416Z,45.96
2023-05-18T18:42:03.361Z,46.47
2023-05-18T18:44:31.826Z,46.03
2023-05-18T18:47:00.052Z,46.33
2023-05-18T18:49:27.984Z,47.10
2023-05-18T18:51:59.060Z,46.77
2023-05-18T18:54:27.658Z,47.08
2023-05-18T18:56:56.820Z,46.85
2023-05-18T18:59:25.006Z,47.45
2023-05-18T19:01:53.011Z,46.98
2023-05-18T19:04:21.092Z,47.06
2023-05-18T19:06:49.536Z,47.41
2023-05-18T19:09:20.181Z,47.85
2023-05-18T19:11:48.442Z,47.65
2023-05-18T19:14:16.846Z,47.87
2023-05-18T19:16:44.734Z,48.21
2023-05-18T19:19:15.102Z,47.99
2023-05-18T19:21:44.615Z,48.05
2023-05-18T19:24:13.040Z,48.88
2023-05-18T19:26:40.865Z,48.21
2023-05-18T19:29:11.148Z,48.63
2023-05-18T19:31:39.043Z,48.70
2023-05-18T19:34:07.005Z,49.05
2023-05-18T19:36:36.723Z,48.61
2023-05-18T19:39:06.223Z,49.27
2023-05-18T19:41:34.094Z,49.31
2023-05-18T19:44:04.460Z,49.31
2023-05-18T19:46:32.560Z,49.20
2023-05-18T19:49:01.501Z,49.81
2023-05-18T19:51:30.783Z,49.35
2023-05-18T19:53:58.669Z,49.28
2023-05-18T19:56:26.794Z,49.45
2023-05-18T19:58:56.672Z,49.71
2023-05-18T20:01:25.513Z,50.25
2023-05-18T20:03:56.528Z,49.93
2023-05-18T20:06:24.639Z,50.26
2023-05-18T20:08:52.452Z,50.15
2023-05-18T20:11:21.522Z,50.20
2023-05-18T20:13:50.056Z,50.71
2023-05-18T20:16:18.765Z,50.27
2023-05-18T20:18:46.921Z,50.47
2023-05-18T20:21:14.931Z,50.88
2023-05-18T20:23:45.476Z,51.07
2023-05-18T20:26:13.947Z,50.78
2023-05-18T20:28:42.395Z,51.54
2023-05-18T20:31:11.878Z,50.83
2023-05-18T20:33:39.788Z,51.27
2023-05-18T20:36:09.185Z,51.13
2023-05-18T20:38:39.301Z,51.72
2023-05-18T20:41:08.281Z,52.07
2023-05-18T20:43:37.850Z,51.85
2023-05-18T20:46:06.191Z,52.25
2023-05-18T20:48:36.064Z,51.86
2023-05-18T20:51:04.233Z,52.38
2023-05-18T20:53:32.126Z,52.31
2023-05-18T20:56:01.597Z,52.13
2023-05-18T20:58:29.597Z,52.05
2023-05-18T21:00:57.523Z,52.35
2023-05-18T21:03:25.943Z,52.66
2023-05-18T21:05:54.064Z,52.96
2023-05-18T21:08:21.971Z,52.86
2023-05-18T21:10:49.945Z,52.84
2023-05-18T21:13:17.926Z,53.00
2023-05-18T21:15:46.580Z,53.34
2023-05-18T21:18:14.576Z,53.81
2023-05-18T21:20:42.534Z,53.91
2023-05-18T21:23:10.345Z,54.39
2023-05-18T21:25:38.324Z,54.17
2023-05-18T21:28:06.502Z,54.14
2023-05-18T21:30:34.602Z,54.23
2023-05-18T21:33:02.948Z,54.07
2023-05-18T21:35:30.950Z,54.32
2023-05-18T21:37:58.784Z,54.61
2023-05-18T21:40:27.026Z,54.55
2023-05-18T21:42:56.312Z,54.62
2023-05-18T21:45:25.051Z,54.85
2023-05-18T21:47:52.976Z,54.67
2023-05-18T21:50:20.876Z,54.75
2023-05-18T21:52:49.127Z,54.53
2023-05-18T21:55:17.166Z,54.63
2023-05-18T21:57:44.876Z,55.05
2023-05-18T22:00:14.006Z,54.95
2023-05-18T22:02:41.958Z,54.87
2023-05-18T22:05:10.137Z,54.73
2023-05-18T22:07:38.339Z,55.09
2023-05-18T22:10:06.434Z,55.08
2023-05-18T22:12:34.501Z,55.23
2023-05-18T22:15:02.289Z,55.20
2023-05-18T22:17:30.702Z,55.37
2023-05-18T22:19:58.449Z,55.99
2023-05-18T22:22:30.637Z,55.58
2023-05-18T22:24:58.470Z,55.98
2023-05-18T22:27:26.179Z,55.80
2023-05-18T22:29:54.245Z,55.87
2023-05-18T22:32:22.205Z,56.07
2023-05-18T22:34:50.077Z,55.84
2023-05-18T22:37:17.747Z,56.33
2023-05-18T22:39:45.529Z,56.12
2023-05-18T22:42:13.238Z,56.49
2023-05-18T22:44:42.269Z,56.40
2023-05-18T22:47:10.248Z,56.40
2023-05-18T22:49:37.947Z,56.69
2023-05-18T22:52:05.648Z,56.45
2023-05-18T22:54:33.724Z,56.48
2023-05-18T22:57:01.564Z,56.42
2023-05-18T22:59:29.544Z,56.32
2023-05-18T23:01:57.326Z,56.11
2023-05-18T23:04:24.981Z,56.94
2023-05-18T23:06:53.069Z,56.91
2023-05-18T23:09:21.402Z,57.16
2023-05-18T23:11:51.660Z,56.74
2023-05-18T23:14:20.165Z,56.69
2023-05-18T23:16:49.456Z,56.87
2023-05-18T23:19:20.256Z,57.05
2023-05-18T23:21:48.264Z,57.40
2023-05-18T23:24:16.055Z,57.86
2023-05-18T23:26:43.780Z,57.53
2023-05-18T23:29:11.920Z,57.76
2023-05-18T23:31:39.981Z,57.75
2023-05-18T23:34:07.649Z,57.48
2023-05-18T23:36:36.362Z,57.72
2023-05-18T23:39:04.068Z,57.33
2023-05-18T23:41:31.780Z,57.79
2023-05-18T23:43:59.838Z,57.97
2023-05-18T23:46:27.736Z,57.94
2023-05-18T23:48:55.344Z,57.86
2023-05-18T23:51:23.362Z,57.88
2023-05-18T23:53:50.999Z,58.00
2023-05-18T23:56:19.117Z,58.08
2023-05-18T23:58:47.013Z,57.95
